createdAt,value
2023-05-04T00:00:30.217Z,1015.70
2023-05-04T00:01:30.465Z,1015.70
2023-05-04T00:02:30.284Z,1015.67
2023-05-04T00:03:30.375Z,1015.69
2023-05-04T00:04:30.242Z,1015.66
2023-05-04T00:05:30.158Z,1015.65
2023-05-04T00:06:30.160Z,1015.66
2023-05-04T00:07:30.153Z,1015.62
2023-05-04T00:08:30.136Z,1015.58
2023-05-04T00:09:30.114Z,1015.55
2023-05-04T00:10:30.157Z,1015.57
2023-05-04T00:11:30.141Z,1015.53
2023-05-04T00:12:30.135Z,1015.55
2023-05-04T00:13:30.137Z,1015.53
2023-05-04T00:14:30.088Z,1015.53
2023-05-04T00:15:30.065Z,1015.50
2023-05-04T00:16:30.108Z,1015.50
2023-05-04T00:17:30.053Z,1015.45
2023-05-04T00:18:30.025Z,1015.46
2023-05-04T00:19:30.156Z,1015.43
2023-05-04T00:20:30.026Z,1015.46
2023-05-04T00:21:29.984Z,1015.48
2023-05-04T00:22:29.973Z,1015.46
2023-05-04T00:23:29.959Z,1015.51
2023-05-04T00:24:29.952Z,1015.45
2023-05-04T00:25:29.954Z,1015.43
2023-05-04T00:26:29.955Z,1015.46
2023-05-04T00:27:29.925Z,1015.47
2023-05-04T00:28:29.947Z,1015.44
2023-05-04T00:29:29.912Z,1015.42
2023-05-04T00:30:29.899Z,1015.41
2023-05-04T00:31:29.952Z,1015.45
2023-05-04T00:32:29.989Z,1015.36
2023-05-04T00:33:29.854Z,1015.38
2023-05-04T00:34:29.869Z,1015.35
2023-05-04T00:35:29.857Z,1015.33
2023-05-04T00:36:29.824Z,1015.35
2023-05-04T00:37:29.806Z,1015.33
2023-05-04T00:38:29.811Z,1015.30
2023-05-04T00:39:29.790Z,1015.26
2023-05-04T00:40:29.797Z,1015.28
2023-05-04T00:41:29.778Z,1015.25
2023-05-04T00:42:29.807Z,1015.27
2023-05-04T00:43:29.752Z,1015.24
2023-05-04T00:44:29.745Z,1015.26
2023-05-04T00:45:29.783Z,1015.28
2023-05-04T00:46:29.757Z,1015.27
2023-05-04T00:47:29.753Z,1015.30
2023-05-04T00:48:29.694Z,1015.31
2023-05-04T00:49:29.734Z,1015.26
2023-05-04T00:50:29.717Z,1015.28
2023-05-04T00:51:29.661Z,1015.27
2023-05-04T00:52:29.663Z,1015.24
2023-05-04T00:53:29.635Z,1015.24
2023-05-04T00:54:29.650Z,1015.24
2023-05-04T00:55:29.668Z,1015.24
2023-05-04T00:56:29.602Z,1015.26
2023-05-04T00:57:29.597Z,1015.26
2023-05-04T00:58:29.581Z,1015.26
2023-05-04T00:59:29.574Z,1015.27
2023-05-04T01:00:29.574Z,1015.22
2023-05-04T01:01:29.634Z,1015.19
2023-05-04T01:02:29.576Z,1015.22
2023-05-04T01:03:29.573Z,1015.22
2023-05-04T01:04:29.519Z,1015.23
2023-05-04T01:05:29.528Z,1015.22
2023-05-04T01:06:29.506Z,1015.23
2023-05-04T01:07:29.492Z,1015.22
2023-05-04T01:08:29.475Z,1015.20
2023-05-04T01:09:29.465Z,1015.24
2023-05-04T01:10:29.655Z,1015.24
2023-05-04T01:11:29.436Z,1015.20
2023-05-04T01:12:29.524Z,1015.23
2023-05-04T01:13:29.471Z,1015.21
2023-05-04T01:14:29.410Z,1015.22
2023-05-04T01:15:29.405Z,1015.21
2023-05-04T01:16:29.442Z,1015.22
2023-05-04T01:17:29.437Z,1015.19
2023-05-04T01:18:29.360Z,1015.17
2023-05-04T01:19:29.366Z,1015.16
2023-05-04T01:20:29.414Z,1015.14
2023-05-04T01:21:29.343Z,1015.18
2023-05-04T01:22:29.345Z,1015.18
2023-05-04T01:23:29.314Z,1015.19
2023-05-04T01:24:29.331Z,1015.19
2023-05-04T01:25:29.312Z,1015.14
2023-05-04T01:26:29.295Z,1015.12
2023-05-04T01:27:29.334Z,1015.14
2023-05-04T01:28:29.289Z,1015.14
2023-05-04T01:29:29.266Z,1015.09
2023-05-04T01:30:29.239Z,1015.11
2023-05-04T01:31:29.234Z,1015.11
2023-05-04T01:32:29.269Z,1015.07
2023-05-04T01:33:29.212Z,1015.13
2023-05-04T01:34:29.207Z,1015.09
2023-05-04T01:35:29.201Z,1015.08
2023-05-04T01:36:29.163Z,1015.10
2023-05-04T01:37:29.158Z,1015.13
2023-05-04T01:38:29.164Z,1015.09
2023-05-04T01:39:29.151Z,1015.06
2023-05-04T01:40:29.165Z,1015.08
2023-05-04T01:41:29.144Z,1015.07
2023-05-04T01:42:29.154Z,1015.07
2023-05-04T01:43:29.111Z,1015.08
2023-05-04T01:44:29.083Z,1015.08
2023-05-04T01:45:29.081Z,1015.06
2023-05-04T01:46:29.117Z,1015.07
2023-05-04T01:48:29.044Z,1015.06
2023-05-04T01:49:29.042Z,1015.04
2023-05-04T01:50:29.028Z,1015.00
2023-05-04T01:51:29.001Z,1015.01
2023-05-04T01:52:28.983Z,1015.02
2023-05-04T01:53:28.997Z,1015.01
2023-05-04T01:54:28.968Z,1015.00
2023-05-04T01:55:28.997Z,1015.02
2023-05-04T01:56:28.973Z,1015.00
2023-05-04T01:57:28.961Z,1015.00
2023-05-04T01:58:28.925Z,1015.01
2023-05-04T01:59:28.929Z,1015.05
2023-05-04T02:00:28.908Z,1015.05
2023-05-04T02:01:28.931Z,1015.06
2023-05-04T02:02:29.006Z,1015.06
2023-05-04T02:03:29.048Z,1015.03
2023-05-04T02:04:28.872Z,1015.07
2023-05-04T02:05:28.849Z,1015.05
2023-05-04T02:06:28.829Z,1015.07
2023-05-04T02:07:28.860Z,1015.01
2023-05-04T02:08:28.821Z,1015.04
2023-05-04T02:09:28.828Z,1015.03
2023-05-04T02:10:28.790Z,1015.00
2023-05-04T02:11:28.814Z,1015.00
2023-05-04T02:12:28.796Z,1015.03
2023-05-04T02:13:28.761Z,1015.02
2023-05-04T02:14:28.765Z,1015.04
2023-05-04T02:15:28.749Z,1015.05
2023-05-04T02:16:28.798Z,1015.08
2023-05-04T02:17:28.752Z,1015.10
2023-05-04T02:18:29.673Z,1015.05
2023-05-04T02:19:28.718Z,1015.11
2023-05-04T02:20:28.683Z,1015.15
2023-05-04T02:21:28.682Z,1015.12
2023-05-04T02:22:28.668Z,1015.14
2023-05-04T02:23:28.761Z,1015.15
2023-05-04T02:24:28.655Z,1015.16
2023-05-04T02:25:28.643Z,1015.16
2023-05-04T02:26:28.642Z,1015.19
2023-05-04T02:27:28.616Z,1015.20
2023-05-04T02:28:28.602Z,1015.17
2023-05-04T02:29:28.604Z,1015.24
2023-05-04T02:30:28.579Z,1015.24
2023-05-04T02:31:28.572Z,1015.22
2023-05-04T02:32:28.617Z,1015.23
2023-05-04T02:33:28.559Z,1015.20
2023-05-04T02:34:28.555Z,1015.18
2023-05-04T02:35:28.538Z,1015.12
2023-05-04T02:36:28.502Z,1015.19
2023-05-04T02:37:28.514Z,1015.18
2023-05-04T02:38:28.490Z,1015.12
2023-05-04T02:39:28.641Z,1015.14
2023-05-04T02:40:28.485Z,1015.12
2023-05-04T02:41:28.474Z,1015.15
2023-05-04T02:42:28.480Z,1015.15
2023-05-04T02:43:28.443Z,1015.17
2023-05-04T02:44:28.445Z,1015.16
2023-05-04T02:45:28.446Z,1015.15
2023-05-04T02:46:28.445Z,1015.15
2023-05-04T02:47:28.444Z,1015.13
2023-05-04T02:48:28.402Z,1015.13
2023-05-04T02:49:28.396Z,1015.15
2023-05-04T02:50:28.400Z,1015.11
2023-05-04T02:51:28.356Z,1015.11
2023-05-04T02:52:28.331Z,1015.12
2023-05-04T02:53:28.407Z,1015.14
2023-05-04T02:54:28.320Z,1015.13
2023-05-04T02:55:28.314Z,1015.11
2023-05-04T02:56:28.298Z,1015.11
2023-05-04T02:57:28.280Z,1015.13
2023-05-04T02:58:28.278Z,1015.11
2023-05-04T02:59:28.290Z,1015.10
2023-05-04T03:00:28.255Z,1015.06
2023-05-04T03:01:28.330Z,1015.08
2023-05-04T03:02:28.245Z,1015.06
2023-05-04T03:03:28.234Z,1015.04
2023-05-04T03:04:28.268Z,1015.04
2023-05-04T03:05:28.222Z,1015.07
2023-05-04T03:06:28.199Z,1015.06
2023-05-04T03:07:28.174Z,1015.05
2023-05-04T03:08:28.160Z,1015.07
2023-05-04T03:09:28.160Z,1015.07
2023-05-04T03:10:28.153Z,1015.04
2023-05-04T03:11:28.153Z,1015.05
2023-05-04T03:12:28.154Z,1015.04
2023-05-04T03:13:28.112Z,1014.99
2023-05-04T03:14:28.125Z,1014.98
2023-05-04T03:15:28.086Z,1014.98
2023-05-04T03:16:28.159Z,1014.97
2023-05-04T03:17:28.120Z,1014.92
2023-05-04T03:18:28.048Z,1014.94
2023-05-04T03:19:28.056Z,1014.98
2023-05-04T03:20:28.055Z,1014.94
2023-05-04T03:21:28.078Z,1014.88
2023-05-04T03:22:28.014Z,1014.91
2023-05-04T03:23:28.011Z,1014.87
2023-05-04T03:24:28.012Z,1014.85
2023-05-04T03:25:27.976Z,1014.83
2023-05-04T03:26:27.969Z,1014.83
2023-05-04T03:27:27.958Z,1014.81
2023-05-04T03:28:27.942Z,1014.83
2023-05-04T03:29:27.949Z,1014.83
2023-05-04T03:30:27.954Z,1014.81
2023-05-04T03:31:27.959Z,1014.84
2023-05-04T03:32:27.927Z,1014.82
2023-05-04T03:33:27.909Z,1014.80
2023-05-04T03:34:27.926Z,1014.80
2023-05-04T03:35:27.893Z,1014.78
2023-05-04T03:36:27.856Z,1014.78
2023-05-04T03:37:27.867Z,1014.76
2023-05-04T03:38:27.844Z,1014.75
2023-05-04T03:39:27.839Z,1014.72
2023-05-04T03:40:27.814Z,1014.70
2023-05-04T03:41:27.890Z,1014.71
2023-05-04T03:42:27.794Z,1014.70
2023-05-04T03:43:27.804Z,1014.69
2023-05-04T03:44:27.802Z,1014.70
2023-05-04T03:45:27.761Z,1014.78
2023-05-04T03:46:27.789Z,1014.71
2023-05-04T03:47:27.790Z,1014.75
2023-05-04T03:48:27.770Z,1014.75
2023-05-04T03:49:27.735Z,1014.75
2023-05-04T03:50:27.716Z,1014.75
2023-05-04T03:51:27.703Z,1014.73
2023-05-04T03:52:27.704Z,1014.76
2023-05-04T03:53:27.686Z,1014.72
2023-05-04T03:54:27.664Z,1014.72
2023-05-04T03:55:27.671Z,1014.73
2023-05-04T03:56:27.690Z,1014.68
2023-05-04T03:57:27.638Z,1014.70
2023-05-04T03:58:27.629Z,1014.66
2023-05-04T03:59:27.609Z,1014.67
2023-05-04T04:00:27.580Z,1014.68
2023-05-04T04:01:27.631Z,1014.63
2023-05-04T04:02:27.679Z,1014.64
2023-05-04T04:03:27.668Z,1014.64
2023-05-04T04:04:27.658Z,1014.63
2023-05-04T04:05:27.549Z,1014.63
2023-05-04T04:06:27.548Z,1014.60
2023-05-04T04:07:27.536Z,1014.62
2023-05-04T04:08:27.526Z,1014.63
2023-05-04T04:09:27.492Z,1014.67
2023-05-04T04:10:27.512Z,1014.68
2023-05-04T04:11:27.539Z,1014.65
2023-05-04T04:12:27.493Z,1014.62
2023-05-04T04:13:27.443Z,1014.65
2023-05-04T04:14:27.459Z,1014.66
2023-05-04T04:15:27.455Z,1014.62
2023-05-04T04:16:27.536Z,1014.63
2023-05-04T04:17:27.468Z,1014.71
2023-05-04T04:18:27.399Z,1014.69
2023-05-04T04:19:27.411Z,1014.70
2023-05-04T04:20:27.381Z,1014.70
2023-05-04T04:21:27.364Z,1014.69
2023-05-04T04:22:27.376Z,1014.71
2023-05-04T04:23:27.363Z,1014.73
2023-05-04T04:24:27.334Z,1014.76
2023-05-04T04:25:27.361Z,1014.75
2023-05-04T04:26:27.423Z,1014.78
2023-05-04T04:27:27.313Z,1014.80
2023-05-04T04:28:27.307Z,1014.76
2023-05-04T04:29:27.286Z,1014.79
2023-05-04T04:30:27.266Z,1014.82
2023-05-04T04:31:27.377Z,1014.80
2023-05-04T04:32:27.287Z,1014.81
2023-05-04T04:33:27.248Z,1014.86
2023-05-04T04:34:27.230Z,1014.83
2023-05-04T04:35:27.240Z,1014.82
2023-05-04T04:36:27.207Z,1014.84
2023-05-04T04:37:27.187Z,1014.83
2023-05-04T04:38:27.202Z,1014.83
2023-05-04T04:39:27.193Z,1014.83
2023-05-04T04:40:27.179Z,1014.84
2023-05-04T04:41:27.145Z,1014.81
2023-05-04T04:42:27.131Z,1014.83
2023-05-04T04:43:27.183Z,1014.83
2023-05-04T04:44:27.112Z,1014.82
2023-05-04T04:45:27.100Z,1014.81
2023-05-04T04:46:27.124Z,1014.86
2023-05-04T04:47:27.136Z,1014.81
2023-05-04T04:48:27.111Z,1014.83
2023-05-04T04:49:27.050Z,1014.82
2023-05-04T04:50:27.049Z,1014.84
2023-05-04T04:51:27.027Z,1014.85
2023-05-04T04:52:27.030Z,1014.81
2023-05-04T04:53:27.027Z,1014.80
2023-05-04T04:54:27.006Z,1014.79
2023-05-04T04:55:26.988Z,1014.84
2023-05-04T04:56:27.087Z,1014.78
2023-05-04T04:57:26.983Z,1014.81
2023-05-04T04:58:27.049Z,1014.79
2023-05-04T04:59:26.978Z,1014.81
2023-05-04T05:00:26.948Z,1014.79
2023-05-04T05:01:26.957Z,1014.85
2023-05-04T05:02:26.950Z,1014.83
2023-05-04T05:03:26.940Z,1014.79
2023-05-04T05:04:27.008Z,1014.80
2023-05-04T05:05:26.882Z,1014.83
2023-05-04T05:06:26.893Z,1014.86
2023-05-04T05:07:26.881Z,1014.87
2023-05-04T05:08:26.864Z,1014.84
2023-05-04T05:09:26.845Z,1014.85
2023-05-04T05:10:26.854Z,1014.83
2023-05-04T05:11:26.869Z,1014.85
2023-05-04T05:12:26.816Z,1014.87
2023-05-04T05:13:27.156Z,1014.89
2023-05-04T05:14:26.793Z,1014.88
2023-05-04T05:15:26.792Z,1014.87
2023-05-04T05:16:26.787Z,1014.86
2023-05-04T05:17:26.815Z,1014.84
2023-05-04T05:18:26.754Z,1014.85
2023-05-04T05:19:26.738Z,1014.86
2023-05-04T05:20:26.718Z,1014.85
2023-05-04T05:21:26.745Z,1014.86
2023-05-04T05:22:26.711Z,1014.87
2023-05-04T05:23:26.697Z,1014.93
2023-05-04T05:24:26.687Z,1014.94
2023-05-04T05:25:26.677Z,1014.97
2023-05-04T05:26:26.663Z,1014.93
2023-05-04T05:27:26.647Z,1014.93
2023-05-04T05:28:26.685Z,1014.94
2023-05-04T05:29:26.626Z,1014.97
2023-05-04T05:30:26.612Z,1014.94
2023-05-04T05:31:26.739Z,1014.91
2023-05-04T05:32:26.616Z,1014.92
2023-05-04T05:33:26.605Z,1014.93
2023-05-04T05:34:26.604Z,1014.95
2023-05-04T05:35:26.566Z,1014.91
2023-05-04T05:36:26.539Z,1014.90
2023-05-04T05:37:26.538Z,1014.88
2023-05-04T05:38:26.534Z,1014.81
2023-05-04T05:39:26.511Z,1014.79
2023-05-04T05:40:26.541Z,1014.76
2023-05-04T05:41:26.488Z,1014.79
2023-05-04T05:42:26.524Z,1014.68
2023-05-04T05:43:26.517Z,1014.65
2023-05-04T05:44:26.506Z,1014.70
2023-05-04T05:45:26.497Z,1014.61
2023-05-04T05:46:26.524Z,1014.67
2023-05-04T05:47:26.472Z,1014.66
2023-05-04T05:48:26.458Z,1014.66
2023-05-04T05:49:26.446Z,1014.66
2023-05-04T05:50:26.432Z,1014.62
2023-05-04T05:51:26.415Z,1014.66
2023-05-04T05:52:26.413Z,1014.62
2023-05-04T05:53:26.413Z,1014.61
2023-05-04T05:54:26.397Z,1014.50
2023-05-04T05:55:26.366Z,1014.51
2023-05-04T05:56:26.355Z,1014.45
2023-05-04T05:57:26.608Z,1014.48
2023-05-04T05:58:26.308Z,1014.50
2023-05-04T05:59:26.316Z,1014.46
2023-05-04T06:00:26.273Z,1014.48
2023-05-04T06:01:26.282Z,1014.51
2023-05-04T06:02:26.380Z,1014.49
2023-05-04T06:03:26.416Z,1014.54
2023-05-04T06:04:26.308Z,1014.56
2023-05-04T06:05:26.250Z,1014.56
2023-05-04T06:06:26.209Z,1014.56
2023-05-04T06:07:26.211Z,1014.54
2023-05-04T06:08:26.361Z,1014.51
2023-05-04T06:09:26.209Z,1014.57
2023-05-04T06:10:26.184Z,1014.59
2023-05-04T06:11:26.173Z,1014.58
2023-05-04T06:12:26.142Z,1014.56
2023-05-04T06:13:26.390Z,1014.54
2023-05-04T06:14:26.126Z,1014.59
2023-05-04T06:15:26.116Z,1014.58
2023-05-04T06:16:26.150Z,1014.55
2023-05-04T06:17:26.134Z,1014.56
2023-05-04T06:18:26.128Z,1014.52
2023-05-04T06:19:26.071Z,1014.49
2023-05-04T06:20:26.056Z,1014.45
2023-05-04T06:21:26.062Z,1014.45
2023-05-04T06:22:26.041Z,1014.46
2023-05-04T06:23:26.049Z,1014.43
2023-05-04T06:24:26.008Z,1014.46
2023-05-04T06:25:26.018Z,1014.40
2023-05-04T06:26:26.031Z,1014.45
2023-05-04T06:27:25.992Z,1014.40
2023-05-04T06:28:26.013Z,1014.45
2023-05-04T06:29:25.991Z,1014.46
2023-05-04T06:30:25.955Z,1014.43
2023-05-04T06:31:25.988Z,1014.43
2023-05-04T06:32:25.992Z,1014.41
2023-05-04T06:33:25.949Z,1014.35
2023-05-04T06:34:25.908Z,1014.36
2023-05-04T06:35:25.988Z,1014.40
2023-05-04T06:36:25.872Z,1014.33
2023-05-04T06:37:25.897Z,1014.35
2023-05-04T06:38:25.872Z,1014.30
2023-05-04T06:39:25.880Z,1014.34
2023-05-04T06:40:25.885Z,1014.32
2023-05-04T06:41:25.889Z,1014.31
2023-05-04T06:42:25.831Z,1014.29
2023-05-04T06:43:25.821Z,1014.28
2023-05-04T06:44:25.816Z,1014.30
2023-05-04T06:45:25.824Z,1014.33
2023-05-04T06:46:25.813Z,1014.28
2023-05-04T06:47:25.860Z,1014.29
2023-05-04T06:48:25.799Z,1014.28
2023-05-04T06:49:25.737Z,1014.28
2023-05-04T06:50:25.730Z,1014.32
2023-05-04T06:51:25.710Z,1014.29
2023-05-04T06:52:25.703Z,1014.29
2023-05-04T06:53:25.720Z,1014.32
2023-05-04T06:54:25.680Z,1014.30
2023-05-04T06:55:25.676Z,1014.28
2023-05-04T06:56:25.654Z,1014.29
2023-05-04T06:57:25.673Z,1014.29
2023-05-04T06:58:25.645Z,1014.30
2023-05-04T06:59:25.633Z,1014.31
2023-05-04T07:00:25.624Z,1014.33
2023-05-04T07:01:25.650Z,1014.32
2023-05-04T07:02:25.889Z,1014.29
2023-05-04T07:03:25.673Z,1014.24
2023-05-04T07:04:25.584Z,1014.23
2023-05-04T07:05:25.689Z,1014.26
2023-05-04T07:06:25.561Z,1014.27
2023-05-04T07:07:25.550Z,1014.27
2023-05-04T07:08:25.544Z,1014.28
2023-05-04T07:09:25.534Z,1014.30
2023-05-04T07:10:25.511Z,1014.33
2023-05-04T07:11:25.492Z,1014.29
2023-05-04T07:12:25.531Z,1014.30
2023-05-04T07:13:25.513Z,1014.31
2023-05-04T07:14:25.459Z,1014.29
2023-05-04T07:15:25.439Z,1014.30
2023-05-04T07:16:25.447Z,1014.31
2023-05-04T07:17:25.701Z,1014.27
2023-05-04T07:18:25.430Z,1014.22
2023-05-04T07:19:25.410Z,1014.28
2023-05-04T07:20:26.235Z,1014.27
2023-05-04T07:21:28.962Z,1014.20
2023-05-04T07:22:25.387Z,1014.24
2023-05-04T07:23:25.375Z,1014.21
2023-05-04T07:24:25.348Z,1014.24
2023-05-04T07:25:25.350Z,1014.21
2023-05-04T07:26:25.431Z,1014.19
2023-05-04T07:27:25.305Z,1014.22
2023-05-04T07:28:25.655Z,1014.18
2023-05-04T07:29:25.304Z,1014.14
2023-05-04T07:30:25.309Z,1014.13
2023-05-04T07:31:25.442Z,1014.10
2023-05-04T07:32:25.421Z,1014.09
2023-05-04T07:33:25.293Z,1014.11
2023-05-04T07:34:37.859Z,1014.06
2023-05-04T07:35:26.226Z,1014.07
2023-05-04T07:36:25.234Z,1014.10
2023-05-04T07:37:25.207Z,1014.07
2023-05-04T07:38:25.219Z,1014.08
2023-05-04T07:39:25.173Z,1014.04
2023-05-04T07:40:25.276Z,1014.05
2023-05-04T07:41:25.153Z,1013.98
2023-05-04T07:42:25.214Z,1014.00
2023-05-04T07:43:25.167Z,1013.99
2023-05-04T07:44:25.166Z,1013.96
2023-05-04T07:45:25.152Z,1013.98
2023-05-04T07:46:25.164Z,1013.99
2023-05-04T07:47:25.137Z,1013.95
2023-05-04T07:48:26.681Z,1013.98
2023-05-04T07:49:25.072Z,1013.93
2023-05-04T07:50:25.082Z,1013.96
2023-05-04T07:51:25.073Z,1013.99
2023-05-04T07:52:25.041Z,1014.03
2023-05-04T07:53:25.156Z,1013.96
2023-05-04T07:54:25.031Z,1013.94
2023-05-04T07:55:25.022Z,1013.96
2023-05-04T07:56:25.082Z,1013.91
2023-05-04T07:57:24.981Z,1013.85
2023-05-04T07:58:25.013Z,1013.85
2023-05-04T07:59:24.987Z,1013.81
2023-05-04T08:00:24.985Z,1013.80
2023-05-04T08:01:24.940Z,1013.78
2023-05-04T08:02:25.043Z,1013.78
2023-05-04T08:03:24.977Z,1013.82
2023-05-04T08:04:24.913Z,1013.79
2023-05-04T08:05:24.900Z,1013.79
2023-05-04T08:06:24.913Z,1013.80
2023-05-04T08:07:24.877Z,1013.73
2023-05-04T08:08:25.041Z,1013.77
2023-05-04T08:09:24.952Z,1013.72
2023-05-04T08:10:24.886Z,1013.70
2023-05-04T08:11:24.830Z,1013.70
2023-05-04T08:12:24.825Z,1013.67
2023-05-04T08:13:24.820Z,1013.58
2023-05-04T08:14:24.806Z,1013.62
2023-05-04T08:15:24.794Z,1013.62
2023-05-04T08:16:24.782Z,1013.63
2023-05-04T08:17:24.795Z,1013.60
2023-05-04T08:18:24.778Z,1013.59
2023-05-04T08:19:24.746Z,1013.57
2023-05-04T08:20:24.738Z,1013.52
2023-05-04T08:21:24.718Z,1013.53
2023-05-04T08:22:24.726Z,1013.50
2023-05-04T08:23:24.720Z,1013.45
2023-05-04T08:24:24.698Z,1013.48
2023-05-04T08:25:24.757Z,1013.49
2023-05-04T08:26:24.680Z,1013.46
2023-05-04T08:27:24.667Z,1013.38
2023-05-04T08:28:24.677Z,1013.43
2023-05-04T08:29:24.658Z,1013.41
2023-05-04T08:30:24.649Z,1013.42
2023-05-04T08:31:24.703Z,1013.41
2023-05-04T08:32:24.642Z,1013.40
2023-05-04T08:33:24.661Z,1013.34
2023-05-04T08:34:24.598Z,1013.32
2023-05-04T08:35:24.627Z,1013.32
2023-05-04T08:36:24.571Z,1013.31
2023-05-04T08:37:24.568Z,1013.32
2023-05-04T08:38:24.599Z,1013.34
2023-05-04T08:39:24.545Z,1013.24
2023-05-04T08:40:24.537Z,1013.24
2023-05-04T08:41:24.557Z,1013.21
2023-05-04T08:42:24.517Z,1013.18
2023-05-04T08:43:24.571Z,1013.18
2023-05-04T08:44:24.492Z,1013.13
2023-05-04T08:45:24.492Z,1013.09
2023-05-04T08:46:24.501Z,1013.16
2023-05-04T08:47:24.504Z,1013.09
2023-05-04T08:48:24.451Z,1013.09
2023-05-04T08:49:24.438Z,1013.10
2023-05-04T08:50:24.522Z,1013.09
2023-05-04T08:51:24.415Z,1013.11
2023-05-04T08:52:24.413Z,1013.04
2023-05-04T08:53:24.404Z,1013.04
2023-05-04T08:54:24.383Z,1013.03
2023-05-04T08:55:24.492Z,1013.07
2023-05-04T08:56:24.376Z,1013.06
2023-05-04T08:57:24.394Z,1013.11
2023-05-04T08:58:24.352Z,1013.07
2023-05-04T08:59:24.341Z,1013.03
2023-05-04T09:00:24.402Z,1013.02
2023-05-04T09:01:24.366Z,1013.05
2023-05-04T09:02:24.371Z,1013.06
2023-05-04T09:03:24.415Z,1013.01
2023-05-04T09:04:24.553Z,1012.99
2023-05-04T09:05:24.277Z,1012.99
2023-05-04T09:06:24.260Z,1012.99
2023-05-04T09:07:24.257Z,1012.99
2023-05-04T09:08:24.244Z,1012.99
2023-05-04T09:09:24.221Z,1012.94
2023-05-04T09:10:24.226Z,1013.11
2023-05-04T09:11:24.213Z,1013.02
2023-05-04T09:12:24.195Z,1013.02
2023-05-04T09:13:24.417Z,1013.08
2023-05-04T09:14:24.187Z,1013.02
2023-05-04T09:15:24.180Z,1013.02
2023-05-04T09:16:24.257Z,1012.93
2023-05-04T09:17:24.158Z,1013.10
2023-05-04T09:18:24.166Z,1012.98
2023-05-04T09:19:24.122Z,1013.01
2023-05-04T09:20:24.127Z,1013.06
2023-05-04T09:21:24.102Z,1012.94
2023-05-04T09:22:24.098Z,1013.01
2023-05-04T09:23:24.099Z,1013.10
2023-05-04T09:24:24.066Z,1013.03
2023-05-04T09:25:24.126Z,1013.01
2023-05-04T09:26:24.073Z,1013.07
2023-05-04T09:27:24.051Z,1013.04
2023-05-04T09:28:24.046Z,1013.01
2023-05-04T09:29:24.023Z,1012.95
2023-05-04T09:30:24.084Z,1013.01
2023-05-04T09:31:24.210Z,1013.08
2023-05-04T09:32:24.061Z,1013.07
2023-05-04T09:33:24.010Z,1013.08
2023-05-04T09:34:24.114Z,1012.94
2023-05-04T09:35:32.494Z,1012.91
2023-05-04T09:36:24.974Z,1012.86
2023-05-04T09:37:24.123Z,1012.92
2023-05-04T09:38:24.191Z,1012.82
2023-05-04T09:39:23.974Z,1012.83
2023-05-04T09:40:23.927Z,1012.88
2023-05-04T09:41:23.951Z,1012.83
2023-05-04T09:42:24.013Z,1012.76
2023-05-04T09:43:23.907Z,1012.77
2023-05-04T09:44:23.862Z,1012.73
2023-05-04T09:45:23.863Z,1012.70
2023-05-04T09:46:23.872Z,1012.75
2023-05-04T09:47:23.856Z,1012.66
2023-05-04T09:48:23.851Z,1012.57
2023-05-04T09:49:23.815Z,1012.63
2023-05-04T09:50:23.816Z,1012.59
2023-05-04T09:51:23.798Z,1012.69
2023-05-04T09:52:23.803Z,1012.73
2023-05-04T09:53:23.783Z,1012.60
2023-05-04T09:54:23.752Z,1012.58
2023-05-04T09:55:23.759Z,1012.58
2023-05-04T09:56:23.740Z,1012.54
2023-05-04T09:57:23.762Z,1012.45
2023-05-04T09:58:23.734Z,1012.49
2023-05-04T09:59:23.720Z,1012.52
2023-05-04T10:00:23.702Z,1012.56
2023-05-04T10:01:23.764Z,1012.49
2023-05-04T10:02:23.758Z,1012.51
2023-05-04T10:03:23.746Z,1012.50
2023-05-04T10:04:23.657Z,1012.53
2023-05-04T10:05:23.696Z,1012.45
2023-05-04T10:06:23.628Z,1012.42
2023-05-04T10:07:23.657Z,1012.42
2023-05-04T10:08:23.636Z,1012.32
2023-05-04T10:09:23.608Z,1012.37
2023-05-04T10:10:23.606Z,1012.32
2023-05-04T10:11:23.584Z,1012.30
2023-05-04T10:12:23.580Z,1012.20
2023-05-04T10:13:23.586Z,1012.27
2023-05-04T10:14:23.614Z,1012.26
2023-05-04T10:15:23.543Z,1012.32
2023-05-04T10:16:23.543Z,1012.32
2023-05-04T10:17:23.659Z,1012.28
2023-05-04T10:18:23.525Z,1012.33
2023-05-04T10:19:23.578Z,1012.29
2023-05-04T10:20:23.497Z,1012.23
2023-05-04T10:21:23.481Z,1012.22
2023-05-04T10:22:23.469Z,1012.24
2023-05-04T10:23:24.057Z,1012.20
2023-05-04T10:24:23.459Z,1012.20
2023-05-04T10:25:23.452Z,1012.15
2023-05-04T10:26:23.458Z,1012.14
2023-05-04T10:27:23.436Z,1012.08
2023-05-04T10:28:23.459Z,1012.13
2023-05-04T10:29:23.865Z,1012.11
2023-05-04T10:30:23.413Z,1012.10
2023-05-04T10:31:23.450Z,1012.04
2023-05-04T10:32:23.433Z,1011.96
2023-05-04T10:33:23.454Z,1012.04
2023-05-04T10:34:23.353Z,1011.97
2023-05-04T10:35:23.362Z,1011.98
2023-05-04T10:36:23.366Z,1012.01
2023-05-04T10:37:23.333Z,1011.91
2023-05-04T10:38:23.316Z,1011.90
2023-05-04T10:39:23.296Z,1011.90
2023-05-04T10:40:23.297Z,1011.80
2023-05-04T10:41:23.307Z,1011.81
2023-05-04T10:42:23.281Z,1011.80
2023-05-04T10:43:23.274Z,1011.81
2023-05-04T10:44:23.273Z,1011.79
2023-05-04T10:45:23.263Z,1011.73
2023-05-04T10:46:23.254Z,1011.76
2023-05-04T10:47:23.231Z,1011.79
2023-05-04T10:48:23.374Z,1011.75
2023-05-04T10:49:23.476Z,1011.68
2023-05-04T10:50:23.202Z,1011.70
2023-05-04T10:51:24.325Z,1011.72
2023-05-04T10:52:23.562Z,1011.69
2023-05-04T10:53:23.273Z,1011.68
2023-05-04T10:54:23.250Z,1011.75
2023-05-04T10:55:23.159Z,1011.67
2023-05-04T10:56:23.865Z,1011.60
2023-05-04T10:57:23.158Z,1011.62
2023-05-04T10:58:23.125Z,1011.64
2023-05-04T10:59:23.117Z,1011.59
2023-05-04T11:00:23.107Z,1011.60
2023-05-04T11:01:23.140Z,1011.53
2023-05-04T11:02:23.143Z,1011.48
2023-05-04T11:03:23.130Z,1011.51
2023-05-04T11:04:23.067Z,1011.53
2023-05-04T11:05:23.066Z,1011.58
2023-05-04T11:06:24.020Z,1011.45
2023-05-04T11:07:23.031Z,1011.43
2023-05-04T11:08:23.049Z,1011.37
2023-05-04T11:09:23.001Z,1011.32
2023-05-04T11:10:23.012Z,1011.35
2023-05-04T11:11:22.990Z,1011.23
2023-05-04T11:12:22.980Z,1011.27
2023-05-04T11:13:23.038Z,1011.23
2023-05-04T11:14:22.959Z,1011.16
2023-05-04T11:15:22.957Z,1011.22
2023-05-04T11:16:22.951Z,1011.26
2023-05-04T11:17:28.158Z,1011.12
2023-05-04T11:18:23.958Z,1011.18
2023-05-04T11:19:22.917Z,1011.14
2023-05-04T11:20:22.947Z,1011.08
2023-05-04T11:21:22.895Z,1011.10
2023-05-04T11:22:22.958Z,1011.15
2023-05-04T11:23:22.873Z,1011.18
2023-05-04T11:24:22.868Z,1011.16
2023-05-04T11:25:22.886Z,1011.11
2023-05-04T11:26:22.851Z,1011.07
2023-05-04T11:27:22.849Z,1011.14
2023-05-04T11:28:22.825Z,1011.02
2023-05-04T11:29:22.836Z,1011.03
2023-05-04T11:30:22.812Z,1011.01
2023-05-04T11:31:22.828Z,1011.01
2023-05-04T11:32:22.857Z,1011.03
2023-05-04T11:33:22.818Z,1010.94
2023-05-04T11:34:22.767Z,1011.10
2023-05-04T11:35:22.786Z,1010.94
2023-05-04T11:36:22.900Z,1010.92
2023-05-04T11:37:22.742Z,1010.93
2023-05-04T11:38:22.763Z,1010.92
2023-05-04T11:39:22.720Z,1010.94
2023-05-04T11:40:22.701Z,1010.92
2023-05-04T11:41:22.691Z,1010.87
2023-05-04T11:42:22.712Z,1010.84
2023-05-04T11:43:22.690Z,1010.79
2023-05-04T11:44:22.719Z,1010.70
2023-05-04T11:45:22.698Z,1010.67
2023-05-04T11:46:22.710Z,1010.77
2023-05-04T11:47:22.671Z,1010.66
2023-05-04T11:48:22.697Z,1010.69
2023-05-04T11:49:22.616Z,1010.65
2023-05-04T11:50:22.613Z,1010.75
2023-05-04T11:51:22.588Z,1010.76
2023-05-04T11:52:22.623Z,1010.78
2023-05-04T11:53:22.758Z,1010.75
2023-05-04T11:54:22.565Z,1010.78
2023-05-04T11:55:22.570Z,1010.75
2023-05-04T11:56:22.720Z,1010.76
2023-05-04T11:57:22.569Z,1010.68
2023-05-04T11:58:22.556Z,1010.63
2023-05-04T11:59:22.517Z,1010.65
2023-05-04T12:00:22.507Z,1010.59
2023-05-04T12:01:22.499Z,1010.61
2023-05-04T12:02:22.671Z,1010.57
2023-05-04T12:03:24.396Z,1010.60
2023-05-04T12:04:22.508Z,1010.60
2023-05-04T12:05:22.472Z,1010.57
2023-05-04T12:06:22.459Z,1010.54